createdAt,value
2019-04-25T00:01:57.333Z,52.98
2019-04-25T00:04:42.611Z,52.57
2019-04-25T00:07:11.954Z,51.99
2019-04-25T00:09:43.077Z,52.45
2019-04-25T00:12:14.690Z,53.08
2019-04-25T00:14:44.134Z,53.00
2019-04-25T00:17:13.100Z,53.02
2019-04-25T00:19:43.341Z,52.29
2019-04-25T00:22:16.700Z,52.06
2019-04-25T00:24:51.562Z,51.90
2019-04-25T00:27:21.686Z,52.22
2019-04-25T00:29:51.879Z,52.76
2019-04-25T00:32:21.638Z,53.85
2019-04-25T00:34:55.786Z,54.05
2019-04-25T00:37:24.448Z,53.86
2019-04-25T00:39:55.790Z,54.04
2019-04-25T00:42:24.525Z,53.80
2019-04-25T00:44:53.530Z,53.75
2019-04-25T00:47:22.280Z,53.41
2019-04-25T00:49:52.391Z,53.96
2019-04-25T00:52:22.759Z,53.77
2019-04-25T00:54:52.604Z,53.24
2019-04-25T00:57:22.502Z,53.14
2019-04-25T00:59:58.730Z,52.75
2019-04-25T01:02:35.169Z,52.92
2019-04-25T01:05:05.057Z,53.34
2019-04-25T01:07:34.530Z,54.25
2019-04-25T01:10:05.590Z,54.34
2019-04-25T01:12:34.242Z,54.15
2019-04-25T01:15:22.412Z,54.39
2019-04-25T01:17:52.210Z,54.88
2019-04-25T01:20:21.590Z,54.96
2019-04-25T01:22:51.360Z,54.91
2019-04-25T01:25:20.209Z,55.00
2019-04-25T01:27:49.717Z,54.34
2019-04-25T01:30:20.386Z,54.28
2019-04-25T01:32:50.619Z,53.77
2019-04-25T01:35:20.900Z,53.89
2019-04-25T01:37:51.184Z,54.01
2019-04-25T01:40:37.434Z,54.74
2019-04-25T01:43:23.706Z,54.46
2019-04-25T01:45:54.040Z,54.30
2019-04-25T01:48:23.497Z,54.42
2019-04-25T01:50:52.825Z,54.62
2019-04-25T01:53:24.137Z,55.23
2019-04-25T01:56:02.374Z,55.67
2019-04-25T01:58:25.521Z,55.71
2019-04-25T02:00:56.055Z,56.25
2019-04-25T02:03:27.101Z,56.31
2019-04-25T02:05:56.156Z,55.71
2019-04-25T02:08:25.788Z,55.37
2019-04-25T02:10:58.994Z,56.16
2019-04-25T02:13:33.626Z,56.41
2019-04-25T02:16:05.984Z,56.14
2019-04-25T02:18:34.624Z,56.37
2019-04-25T02:21:04.516Z,55.37
2019-04-25T02:23:34.148Z,55.53
2019-04-25T02:26:13.421Z,55.51
2019-04-25T02:28:33.805Z,56.03
2019-04-25T02:31:08.216Z,56.29
2019-04-25T02:33:40.783Z,56.70
2019-04-25T02:36:09.505Z,57.74
2019-04-25T02:38:39.621Z,57.78
2019-04-25T02:41:09.120Z,57.20
2019-04-25T02:43:38.189Z,56.66
2019-04-25T02:46:11.801Z,56.89
2019-04-25T02:48:51.236Z,57.11
2019-04-25T02:51:30.863Z,56.92
2019-04-25T02:54:07.833Z,57.14
2019-04-25T02:56:38.674Z,55.62
2019-04-25T02:59:08.798Z,56.53
2019-04-25T03:01:36.238Z,57.38
2019-04-25T03:04:10.719Z,57.76
2019-04-25T03:06:36.314Z,57.81
2019-04-25T03:09:09.818Z,57.48
2019-04-25T03:11:38.831Z,57.90
2019-04-25T03:14:10.029Z,57.53
2019-04-25T03:16:38.095Z,56.92
2019-04-25T03:19:26.330Z,58.00
2019-04-25T03:21:56.564Z,57.20
2019-04-25T03:24:27.159Z,56.83
2019-04-25T03:26:55.999Z,57.79
2019-04-25T03:29:24.879Z,59.03
2019-04-25T03:31:56.096Z,59.96
2019-04-25T03:34:29.246Z,59.36
2019-04-25T03:36:57.914Z,59.22
2019-04-25T03:39:27.113Z,60.33
2019-04-25T03:41:56.028Z,60.12
2019-04-25T03:44:25.374Z,59.50
2019-04-25T03:46:54.071Z,61.14
2019-04-25T03:49:23.853Z,61.73
2019-04-25T03:51:53.843Z,60.90
2019-04-25T03:54:23.588Z,60.81
2019-04-25T03:56:58.660Z,60.02
2019-04-25T03:59:27.339Z,58.92
2019-04-25T04:01:56.291Z,58.51
2019-04-25T04:04:25.312Z,58.42
2019-04-25T04:06:54.014Z,58.24
2019-04-25T04:09:24.032Z,56.41
2019-04-25T04:11:53.538Z,57.35
2019-04-25T04:14:23.957Z,55.78
2019-04-25T04:17:10.884Z,55.32
2019-04-25T04:19:57.211Z,55.22
2019-04-25T04:22:30.854Z,56.14
2019-04-25T04:25:27.157Z,55.92
2019-04-25T04:28:00.360Z,56.42
2019-04-25T04:30:45.377Z,55.65
2019-04-25T04:33:29.612Z,55.81
2019-04-25T04:35:49.854Z,56.09
2019-04-25T04:38:18.697Z,55.97
2019-04-25T04:40:49.484Z,56.93
2019-04-25T04:43:23.950Z,56.00
2019-04-25T04:45:54.163Z,55.48
2019-04-25T04:48:24.315Z,55.78
2019-04-25T04:50:58.545Z,54.66
2019-04-25T04:53:29.203Z,53.79
2019-04-25T04:56:04.178Z,53.22
2019-04-25T04:58:40.008Z,53.73
2019-04-25T05:01:08.666Z,53.92
2019-04-25T05:04:13.046Z,53.68
2019-04-25T05:07:01.222Z,53.84
2019-04-25T05:09:29.974Z,53.72
2019-04-25T05:11:58.660Z,52.71
2019-04-25T05:14:27.511Z,53.41
2019-04-25T05:16:59.366Z,52.71
2019-04-25T05:19:30.851Z,52.25
2019-04-25T05:21:59.612Z,52.18
2019-04-25T05:24:28.323Z,51.65
2019-04-25T05:26:57.019Z,50.93
2019-04-25T05:29:26.675Z,51.31
2019-04-25T05:31:58.307Z,50.10
2019-04-25T05:34:27.043Z,49.48
2019-04-25T05:36:56.336Z,49.11
2019-04-25T05:39:26.972Z,48.91
2019-04-25T05:42:00.334Z,49.22
2019-04-25T05:44:28.995Z,48.14
2019-04-25T05:46:57.661Z,47.44
2019-04-25T05:49:29.611Z,48.45
2019-04-25T05:51:59.506Z,47.59
2019-04-25T05:54:30.050Z,46.89
2019-04-25T05:57:05.237Z,46.42
2019-04-25T05:59:35.422Z,44.53
2019-04-25T06:02:07.396Z,45.11
2019-04-25T06:04:41.167Z,46.42
2019-04-25T06:07:14.364Z,45.00
2019-04-25T06:09:48.639Z,44.27
2019-04-25T06:12:26.208Z,42.96
2019-04-25T06:14:56.363Z,42.36
2019-04-25T06:17:30.151Z,43.36
2019-04-25T06:20:04.426Z,43.55
2019-04-25T06:22:50.836Z,43.88
2019-04-25T06:25:29.758Z,43.79
2019-04-25T06:27:58.566Z,41.31
2019-04-25T06:30:31.703Z,40.92
2019-04-25T06:33:00.579Z,42.47
2019-04-25T06:35:29.571Z,44.21
2019-04-25T06:37:58.319Z,45.06
2019-04-25T06:40:37.130Z,43.72
2019-04-25T06:43:13.632Z,43.17
2019-04-25T06:46:00.423Z,41.98
2019-04-25T06:48:39.594Z,43.63
2019-04-25T06:51:09.764Z,44.08
2019-04-25T06:53:38.512Z,44.08
2019-04-25T06:56:08.634Z,42.74
2019-04-25T06:58:39.283Z,41.82
2019-04-25T07:01:08.042Z,41.82
2019-04-25T07:03:41.763Z,41.80
2019-04-25T07:06:12.929Z,42.57
2019-04-25T07:08:43.001Z,40.18
2019-04-25T07:11:13.983Z,40.58
2019-04-25T07:13:44.006Z,41.67
2019-04-25T07:16:13.397Z,39.81
2019-04-25T07:18:44.115Z,39.91
2019-04-25T07:21:14.294Z,41.33
2019-04-25T07:24:04.160Z,40.09
2019-04-25T07:26:47.187Z,39.92
2019-04-25T07:29:20.250Z,40.13
2019-04-25T07:32:06.927Z,40.38
2019-04-25T07:34:35.597Z,39.17
2019-04-25T07:37:04.249Z,39.19
2019-04-25T07:39:34.374Z,40.11
2019-04-25T07:42:04.147Z,39.26
2019-04-25T07:44:41.997Z,39.61
2019-04-25T07:47:05.330Z,39.03
2019-04-25T07:49:34.839Z,39.54
2019-04-25T07:52:03.824Z,39.86
2019-04-25T07:54:34.051Z,39.42
2019-04-25T07:57:03.617Z,40.06
2019-04-25T07:59:34.812Z,40.52
2019-04-25T08:02:03.468Z,39.78
2019-04-25T08:04:32.205Z,39.21
2019-04-25T08:07:00.874Z,39.91
2019-04-25T08:09:29.620Z,38.63
2019-04-25T08:11:58.288Z,37.90
2019-04-25T08:14:32.065Z,38.11
2019-04-25T08:17:08.126Z,38.15
2019-04-25T08:19:37.177Z,36.05
2019-04-25T08:22:07.688Z,36.04
2019-04-25T08:24:46.659Z,36.64
2019-04-25T08:27:15.313Z,35.94
2019-04-25T08:29:45.560Z,34.92
2019-04-25T08:32:15.442Z,34.17
2019-04-25T08:34:46.723Z,35.80
2019-04-25T08:37:18.976Z,35.56
2019-04-25T08:39:45.956Z,35.40
2019-04-25T08:42:15.163Z,34.08
2019-04-25T08:44:44.942Z,35.09
2019-04-25T08:47:14.505Z,33.62
2019-04-25T08:49:49.611Z,33.57
2019-04-25T08:52:21.653Z,34.56
2019-04-25T08:55:04.328Z,33.97
2019-04-25T08:57:50.233Z,34.99
2019-04-25T09:00:24.116Z,33.55
2019-04-25T09:02:54.499Z,33.49
2019-04-25T09:05:37.427Z,32.99
2019-04-25T09:08:06.632Z,32.87
2019-04-25T09:10:41.278Z,34.71
2019-04-25T09:13:10.238Z,34.10
2019-04-25T09:15:39.456Z,32.73
2019-04-25T09:18:08.302Z,33.03
2019-04-25T09:20:46.643Z,32.57
2019-04-25T09:23:47.992Z,33.12
2019-04-25T09:26:30.227Z,33.55
2019-04-25T09:28:58.968Z,32.29
2019-04-25T09:31:29.479Z,32.80
2019-04-25T09:34:09.515Z,32.08
2019-04-25T09:36:38.324Z,32.35
2019-04-25T09:39:26.529Z,32.14
2019-04-25T09:41:55.315Z,30.82
2019-04-25T09:44:36.147Z,30.72
2019-04-25T09:47:06.327Z,30.60
2019-04-25T09:49:36.909Z,31.54
2019-04-25T09:52:08.180Z,31.38
2019-04-25T09:54:38.592Z,32.26
2019-04-25T09:57:13.437Z,32.41
2019-04-25T09:59:43.651Z,31.22
2019-04-25T10:02:13.448Z,31.63
2019-04-25T10:04:42.192Z,32.29
2019-04-25T10:07:12.003Z,30.64
2019-04-25T10:10:03.651Z,31.66
2019-04-25T10:12:41.325Z,32.39
2019-04-25T10:15:43.012Z,31.64
2019-04-25T10:18:18.466Z,30.83
2019-04-25T10:20:54.263Z,30.40
2019-04-25T10:24:00.733Z,30.39
2019-04-25T10:26:29.943Z,30.87
2019-04-25T10:29:03.598Z,32.08
2019-04-25T10:31:33.903Z,31.51
2019-04-25T10:34:03.819Z,31.73
2019-04-25T10:36:33.642Z,31.50
2019-04-25T10:39:08.625Z,31.33
2019-04-25T10:41:35.860Z,31.30
2019-04-25T10:44:05.616Z,30.14
2019-04-25T10:46:45.681Z,30.77
2019-04-25T10:49:14.501Z,30.27
2019-04-25T10:51:44.723Z,30.14
2019-04-25T10:54:14.564Z,30.03
2019-04-25T10:56:45.679Z,29.14
2019-04-25T10:59:15.705Z,28.97
2019-04-25T11:01:46.021Z,29.18
2019-04-25T11:04:16.514Z,29.98
2019-04-25T11:06:45.599Z,29.71
2019-04-25T11:09:19.110Z,29.67
2019-04-25T11:11:48.163Z,30.61
2019-04-25T11:14:23.943Z,30.80
2019-04-25T11:16:55.051Z,31.03
2019-04-25T11:19:23.960Z,30.68
2019-04-25T11:21:53.818Z,30.49
2019-04-25T11:24:24.539Z,30.60
2019-04-25T11:26:55.147Z,30.77
2019-04-25T11:29:24.275Z,30.82
2019-04-25T11:31:53.467Z,30.82
2019-04-25T11:34:23.052Z,30.62
2019-04-25T11:36:51.711Z,31.38
2019-04-25T11:39:28.042Z,31.38
2019-04-25T11:41:57.023Z,31.05
2019-04-25T11:44:25.697Z,31.53
2019-04-25T11:46:54.421Z,31.78
2019-04-25T11:49:23.895Z,31.54
2019-04-25T11:51:52.710Z,31.90
2019-04-25T11:54:21.376Z,32.25
2019-04-25T11:56:50.781Z,32.54
2019-04-25T11:59:23.540Z,31.82
2019-04-25T12:01:52.439Z,31.77
2019-04-25T12:04:21.337Z,32.40
2019-04-25T12:06:50.074Z,32.65
2019-04-25T12:09:20.238Z,32.79
2019-04-25T12:11:49.909Z,32.57
2019-04-25T12:14:18.906Z,32.09
2019-04-25T12:16:49.080Z,32.02
2019-04-25T12:19:18.256Z,31.97
2019-04-25T12:21:46.858Z,32.00
2019-04-25T12:24:15.601Z,31.75
2019-04-25T12:26:46.533Z,32.47
2019-04-25T12:29:14.856Z,32.08
2019-04-25T12:31:46.412Z,31.75
2019-04-25T12:34:15.009Z,32.23
2019-04-25T12:36:44.408Z,31.96
2019-04-25T12:39:13.995Z,31.90
2019-04-25T12:41:46.750Z,31.83
2019-04-25T12:44:33.732Z,31.72
2019-04-25T12:47:19.441Z,32.05
2019-04-25T12:49:50.583Z,31.80
2019-04-25T12:52:19.424Z,32.39
2019-04-25T12:54:49.765Z,31.89
2019-04-25T12:57:19.874Z,31.83
2019-04-25T12:59:51.124Z,31.71
2019-04-25T13:02:23.554Z,30.99
2019-04-25T13:05:04.350Z,31.17
2019-04-25T13:07:32.821Z,30.95
2019-04-25T13:10:01.470Z,30.90
2019-04-25T13:12:30.193Z,30.98
2019-04-25T13:14:58.898Z,31.23
2019-04-25T13:17:27.610Z,32.33
2019-04-25T13:19:56.736Z,32.28
2019-04-25T13:22:27.368Z,32.17
2019-04-25T13:25:07.101Z,32.17
2019-04-25T13:27:39.980Z,31.91
2019-04-25T13:30:19.910Z,31.47
2019-04-25T13:32:59.140Z,32.10
2019-04-25T13:35:29.922Z,32.03
2019-04-25T13:37:59.330Z,32.24
2019-04-25T13:40:28.066Z,33.13
2019-04-25T13:42:57.975Z,33.15
2019-04-25T13:45:26.950Z,33.16
2019-04-25T13:47:57.313Z,33.03
2019-04-25T13:50:26.164Z,33.19
2019-04-25T13:52:54.881Z,32.84
2019-04-25T13:55:24.028Z,32.56
2019-04-25T13:57:54.833Z,33.01
2019-04-25T14:00:26.070Z,33.36
2019-04-25T14:02:54.825Z,33.57
2019-04-25T14:05:24.938Z,33.49
2019-04-25T14:07:54.720Z,33.77
2019-04-25T14:10:25.179Z,33.71
2019-04-25T14:12:54.695Z,33.29
2019-04-25T14:15:25.448Z,33.32
2019-04-25T14:17:55.920Z,33.12
2019-04-25T14:20:32.690Z,33.14
2019-04-25T14:23:03.447Z,32.96
2019-04-25T14:25:33.118Z,33.53
2019-04-25T14:28:02.220Z,33.14
2019-04-25T14:30:34.217Z,32.97
2019-04-25T14:33:08.794Z,32.93
2019-04-25T14:35:37.666Z,32.34
2019-04-25T14:38:06.505Z,32.72
2019-04-25T14:40:35.229Z,32.70
2019-04-25T14:43:05.198Z,32.72
2019-04-25T14:45:44.011Z,33.23
2019-04-25T14:48:04.889Z,32.91
2019-04-25T14:50:34.117Z,33.14
2019-04-25T14:53:03.081Z,33.21
2019-04-25T14:55:36.405Z,33.23
2019-04-25T14:58:06.717Z,32.76
2019-04-25T15:00:42.759Z,33.37
2019-04-25T15:03:11.920Z,33.16
2019-04-25T15:05:41.957Z,33.32
2019-04-25T15:08:11.030Z,33.04
2019-04-25T15:10:40.949Z,33.55
2019-04-25T15:13:09.980Z,34.20
2019-04-25T15:15:38.625Z,33.89
2019-04-25T15:18:10.504Z,34.39
2019-04-25T15:20:39.134Z,34.62
2019-04-25T15:23:07.838Z,34.59
2019-04-25T15:25:37.035Z,34.26
2019-04-25T15:28:05.728Z,34.29
2019-04-25T15:30:36.029Z,34.54
2019-04-25T15:33:04.907Z,34.32
2019-04-25T15:35:35.199Z,34.75
2019-04-25T15:38:08.329Z,34.83
2019-04-25T15:40:41.669Z,34.85
2019-04-25T15:43:14.893Z,34.78
2019-04-25T15:45:45.200Z,35.06
2019-04-25T15:48:14.036Z,34.96
2019-04-25T15:50:43.074Z,34.75
2019-04-25T15:53:11.748Z,34.93
2019-04-25T15:55:40.812Z,35.08
2019-04-25T15:58:09.611Z,34.85
2019-04-25T16:00:38.964Z,34.91
2019-04-25T16:03:07.733Z,35.33
2019-04-25T16:05:36.994Z,35.55
2019-04-25T16:08:06.305Z,35.52
2019-04-25T16:10:34.980Z,35.82
2019-04-25T16:13:04.032Z,35.80
2019-04-25T16:15:33.220Z,36.07
2019-04-25T16:18:02.044Z,36.29
2019-04-25T16:20:31.466Z,36.62
2019-04-25T16:23:00.418Z,36.94
2019-04-25T16:25:29.969Z,36.96
2019-04-25T16:27:58.879Z,37.34
2019-04-25T16:30:32.548Z,37.35
2019-04-25T16:33:01.236Z,36.89
2019-04-25T16:35:30.943Z,37.26
2019-04-25T16:38:00.051Z,37.42
2019-04-25T16:40:29.835Z,37.62
2019-04-25T16:43:14.408Z,37.79
2019-04-25T16:45:46.091Z,37.68
2019-04-25T16:48:19.927Z,38.32
2019-04-25T16:50:48.639Z,38.92
2019-04-25T16:53:17.342Z,39.40
2019-04-25T16:55:45.879Z,39.44
2019-04-25T16:58:15.060Z,39.59
2019-04-25T17:00:48.273Z,39.71
2019-04-25T17:03:17.707Z,39.66
2019-04-25T17:05:46.557Z,40.00
2019-04-25T17:08:15.217Z,40.06
2019-04-25T17:10:47.198Z,40.05
2019-04-25T17:13:16.126Z,39.60
2019-04-25T17:15:46.578Z,39.65
2019-04-25T17:18:22.831Z,39.80
2019-04-25T17:21:05.076Z,39.34
2019-04-25T17:23:34.526Z,39.63
2019-04-25T17:26:04.551Z,39.68
2019-04-25T17:28:34.985Z,39.88
2019-04-25T17:31:20.667Z,39.54
2019-04-25T17:33:50.976Z,39.61
2019-04-25T17:36:38.639Z,39.70
2019-04-25T17:39:27.604Z,39.42
2019-04-25T17:41:56.380Z,39.50
2019-04-25T17:44:25.063Z,40.11
2019-04-25T17:47:05.653Z,40.18
2019-04-25T17:49:24.027Z,39.64
2019-04-25T17:51:58.824Z,39.71
2019-04-25T17:54:27.482Z,40.36
2019-04-25T17:56:56.418Z,40.33
2019-04-25T17:59:25.161Z,40.92
2019-04-25T18:01:59.423Z,40.87
2019-04-25T18:04:28.128Z,40.90
2019-04-25T18:06:56.829Z,41.09
2019-04-25T18:09:25.488Z,41.29
2019-04-25T18:11:54.201Z,41.61
2019-04-25T18:14:22.912Z,41.65
2019-04-25T18:16:57.767Z,41.68
2019-04-25T18:19:28.300Z,41.59
2019-04-25T18:21:58.631Z,41.55
2019-04-25T18:24:41.124Z,42.05
2019-04-25T18:27:29.790Z,42.28
2019-04-25T18:30:00.502Z,42.56
2019-04-25T18:32:31.640Z,43.25
2019-04-25T18:35:02.005Z,43.38
2019-04-25T18:37:32.409Z,42.96
2019-04-25T18:40:02.697Z,43.64
2019-04-25T18:42:36.512Z,44.13
2019-04-25T18:45:08.244Z,44.58
2019-04-25T18:47:38.277Z,45.13
2019-04-25T18:50:08.365Z,46.20
2019-04-25T18:52:45.019Z,44.96
2019-04-25T18:55:20.541Z,45.78
2019-04-25T18:57:53.838Z,44.99
2019-04-25T19:00:29.748Z,44.61
2019-04-25T19:03:06.197Z,45.47
2019-04-25T19:05:36.535Z,45.76
2019-04-25T19:08:06.602Z,45.47
2019-04-25T19:10:35.420Z,45.25
2019-04-25T19:13:12.494Z,45.43
2019-04-25T19:15:34.559Z,46.33
2019-04-25T19:18:03.478Z,46.34
2019-04-25T19:20:32.247Z,46.48
2019-04-25T19:23:01.002Z,46.22
2019-04-25T19:25:29.710Z,46.06
2019-04-25T19:27:58.363Z,46.12
2019-04-25T19:30:27.109Z,46.66
2019-04-25T19:32:55.798Z,46.31
2019-04-25T19:35:24.569Z,46.88
2019-04-25T19:37:55.864Z,46.72
2019-04-25T19:40:30.427Z,47.12
2019-04-25T19:43:03.782Z,47.21
2019-04-25T19:45:33.379Z,47.27
2019-04-25T19:48:02.294Z,48.38
2019-04-25T19:50:30.949Z,48.34
2019-04-25T19:52:59.658Z,48.34
2019-04-25T19:55:28.336Z,48.69
2019-04-25T19:57:57.077Z,49.24
2019-04-25T20:00:25.844Z,48.39
2019-04-25T20:03:11.228Z,49.09
2019-04-25T20:05:44.710Z,49.06
2019-04-25T20:08:17.984Z,49.15
2019-04-25T20:10:48.943Z,49.05
2019-04-25T20:13:17.860Z,50.25
2019-04-25T20:15:47.538Z,50.57
2019-04-25T20:18:16.715Z,50.58
2019-04-25T20:20:46.025Z,51.02
2019-04-25T20:23:14.943Z,51.12
2019-04-25T20:25:44.883Z,51.08
2019-04-25T20:28:14.025Z,51.50
2019-04-25T20:30:42.796Z,51.20
2019-04-25T20:33:11.506Z,51.24
2019-04-25T20:35:40.175Z,50.98
2019-04-25T20:38:08.917Z,50.97
2019-04-25T20:40:37.656Z,50.98
2019-04-25T20:43:06.324Z,50.81
2019-04-25T20:45:34.986Z,50.83
2019-04-25T20:48:03.799Z,50.96
2019-04-25T20:50:32.531Z,51.04
2019-04-25T20:53:01.174Z,50.31
2019-04-25T20:55:29.790Z,50.58
2019-04-25T20:57:58.370Z,50.59
2019-04-25T21:00:43.093Z,51.23
2019-04-25T21:03:11.863Z,51.23
2019-04-25T21:05:41.677Z,51.20
2019-04-25T21:08:10.366Z,51.88
2019-04-25T21:10:39.039Z,51.93
2019-04-25T21:13:09.338Z,52.23
2019-04-25T21:15:56.243Z,52.54
2019-04-25T21:18:26.665Z,52.69
2019-04-25T21:20:55.251Z,53.01
2019-04-25T21:23:24.166Z,53.21
2019-04-25T21:25:53.003Z,53.58
2019-04-25T21:28:21.736Z,53.63
2019-04-25T21:30:51.377Z,53.66
2019-04-25T21:33:20.748Z,53.52
2019-04-25T21:35:50.867Z,53.16
2019-04-25T21:38:19.891Z,53.41
2019-04-25T21:40:59.927Z,53.50
2019-04-25T21:43:35.674Z,53.78
2019-04-25T21:46:04.795Z,54.06
2019-04-25T21:48:33.818Z,54.22
2019-04-25T21:51:04.528Z,54.53
2019-04-25T21:53:33.209Z,54.57
2019-04-25T21:56:02.058Z,54.79
2019-04-25T21:58:33.899Z,54.51
2019-04-25T22:01:04.559Z,54.30
2019-04-25T22:03:33.282Z,54.27
2019-04-25T22:06:02.936Z,54.52
2019-04-25T22:08:31.956Z,54.47
2019-04-25T22:11:01.330Z,54.40
2019-04-25T22:13:30.193Z,54.37
2019-04-25T22:15:59.679Z,54.29
2019-04-25T22:18:29.312Z,54.56
2019-04-25T22:20:58.350Z,54.99
2019-04-25T22:23:27.358Z,55.10
2019-04-25T22:25:58.807Z,55.12
2019-04-25T22:28:28.082Z,55.61
2019-04-25T22:30:59.162Z,55.71
2019-04-25T22:33:29.886Z,55.77
2019-04-25T22:36:00.406Z,55.68
2019-04-25T22:38:29.284Z,55.83
2019-04-25T22:40:58.014Z,55.73
2019-04-25T22:43:29.875Z,55.45
2019-04-25T22:46:00.808Z,55.24
2019-04-25T22:48:35.200Z,55.15
2019-04-25T22:51:03.883Z,55.28
2019-04-25T22:53:34.095Z,55.37
2019-04-25T22:56:03.155Z,55.71
2019-04-25T22:58:31.820Z,56.10
2019-04-25T23:01:01.876Z,55.86
2019-04-25T23:03:35.611Z,55.74
2019-04-25T23:06:04.321Z,54.83
2019-04-25T23:08:34.315Z,55.27
2019-04-25T23:11:04.081Z,55.46
2019-04-25T23:13:32.899Z,55.66
2019-04-25T23:16:02.539Z,54.96
2019-04-25T23:18:32.398Z,55.21
2019-04-25T23:21:01.283Z,55.90
2019-04-25T23:23:32.338Z,55.70
2019-04-25T23:26:03.518Z,56.55
2019-04-25T23:28:40.944Z,57.04
2019-04-25T23:31:11.245Z,57.66
2019-04-25T23:33:40.012Z,57.44
2019-04-25T23:36:09.348Z,56.66
2019-04-25T23:38:38.024Z,57.04
2019-04-25T23:41:09.375Z,57.40
2019-04-25T23:43:38.318Z,57.23
2019-04-25T23:46:08.192Z,57.77
2019-04-25T23:48:37.083Z,57.52
2019-04-25T23:51:06.359Z,56.50
2019-04-25T23:53:35.566Z,56.58
2019-04-25T23:56:04.825Z,56.81
2019-04-25T23:58:33.602Z,56.83
